sensor_id;sensor_type;location;lat;lon;timestamp;P1;durP1;ratioP1;P2;durP2;ratioP2
64367;SDS011;50692;53.314;-6.300;2023-07-24T00:00:36;7.47;;;3.53;;
64367;SDS011;50692;53.314;-6.300;2023-07-24T00:03:24;5.43;;;3.33;;
64367;SDS011;50692;53.314;-6.300;2023-07-24T00:06:13;6.80;;;3.75;;
64367;SDS011;50692;53.314;-6.300;2023-07-24T00:09:01;9.88;;;3.83;;
64367;SDS011;50692;53.314;-6.300;2023-07-24T00:11:49;11.60;;;4.55;;
64367;SDS011;50692;53.314;-6.300;2023-07-24T00:14:41;10.20;;;3.72;;
64367;SDS011;50692;53.314;-6.300;2023-07-24T00:17:33;6.53;;;3.85;;
64367;SDS011;50692;53.314;-6.300;2023-07-24T00:20:20;7.28;;;4.07;;
64367;SDS011;50692;53.314;-6.300;2023-07-24T00:23:06;8.88;;;4.00;;
64367;SDS011;50692;53.314;-6.300;2023-07-24T00:25:54;10.15;;;4.22;;
64367;SDS011;50692;53.314;-6.300;2023-07-24T00:28:40;7.20;;;3.70;;
64367;SDS011;50692;53.314;-6.300;2023-07-24T00:31:26;9.63;;;3.85;;
64367;SDS011;50692;53.314;-6.300;2023-07-24T00:34:12;7.70;;;4.70;;
64367;SDS011;50692;53.314;-6.300;2023-07-24T00:36:58;7.55;;;4.03;;
64367;SDS011;50692;53.314;-6.300;2023-07-24T00:39:45;7.53;;;3.92;;
64367;SDS011;50692;53.314;-6.300;2023-07-24T00:42:30;8.15;;;4.03;;
64367;SDS011;50692;53.314;-6.300;2023-07-24T00:45:17;9.13;;;4.03;;
64367;SDS011;50692;53.314;-6.300;2023-07-24T00:48:03;9.68;;;4.85;;
64367;SDS011;50692;53.314;-6.300;2023-07-24T00:50:50;9.13;;;3.97;;
64367;SDS011;50692;53.314;-6.300;2023-07-24T00:53:37;7.05;;;3.83;;
64367;SDS011;50692;53.314;-6.300;2023-07-24T00:56:24;9.30;;;4.22;;
64367;SDS011;50692;53.314;-6.300;2023-07-24T00:59:11;7.75;;;4.75;;
64367;SDS011;50692;53.314;-6.300;2023-07-24T01:01:58;8.27;;;4.18;;
64367;SDS011;50692;53.314;-6.300;2023-07-24T01:04:56;8.85;;;4.35;;
64367;SDS011;50692;53.314;-6.300;2023-07-24T01:07:48;10.73;;;4.20;;
64367;SDS011;50692;53.314;-6.300;2023-07-24T01:10:34;8.52;;;3.80;;
64367;SDS011;50692;53.314;-6.300;2023-07-24T01:13:22;9.23;;;4.45;;
64367;SDS011;50692;53.314;-6.300;2023-07-24T01:16:19;8.52;;;4.00;;
64367;SDS011;50692;53.314;-6.300;2023-07-24T01:19:12;7.20;;;3.95;;
64367;SDS011;50692;53.314;-6.300;2023-07-24T01:28:16;6.10;;;3.90;;
64367;SDS011;50692;53.314;-6.300;2023-07-24T01:31:03;8.25;;;4.20;;
64367;SDS011;50692;53.314;-6.300;2023-07-24T01:33:49;9.27;;;4.32;;
64367;SDS011;50692;53.314;-6.300;2023-07-24T01:36:36;9.73;;;4.50;;
64367;SDS011;50692;53.314;-6.300;2023-07-24T01:39:30;8.77;;;4.60;;
64367;SDS011;50692;53.314;-6.300;2023-07-24T01:42:18;9.07;;;4.43;;
64367;SDS011;50692;53.314;-6.300;2023-07-24T01:45:04;10.02;;;4.38;;
64367;SDS011;50692;53.314;-6.300;2023-07-24T01:47:51;9.70;;;4.47;;
64367;SDS011;50692;53.314;-6.300;2023-07-24T01:50:37;12.32;;;4.50;;
64367;SDS011;50692;53.314;-6.300;2023-07-24T01:53:23;8.23;;;4.43;;
64367;SDS011;50692;53.314;-6.300;2023-07-24T01:56:15;10.43;;;5.28;;
64367;SDS011;50692;53.314;-6.300;2023-07-24T01:59:01;8.15;;;4.45;;
64367;SDS011;50692;53.314;-6.300;2023-07-24T02:01:47;7.82;;;4.25;;
64367;SDS011;50692;53.314;-6.300;2023-07-24T02:04:34;9.15;;;4.68;;
64367;SDS011;50692;53.314;-6.300;2023-07-24T02:07:21;6.43;;;4.13;;
64367;SDS011;50692;53.314;-6.300;2023-07-24T02:10:14;9.00;;;4.25;;
64367;SDS011;50692;53.314;-6.300;2023-07-24T02:13:06;8.02;;;4.53;;
64367;SDS011;50692;53.314;-6.300;2023-07-24T02:15:54;6.60;;;4.32;;
64367;SDS011;50692;53.314;-6.300;2023-07-24T02:18:42;7.68;;;3.30;;
64367;SDS011;50692;53.314;-6.300;2023-07-24T02:21:28;6.40;;;4.28;;
64367;SDS011;50692;53.314;-6.300;2023-07-24T02:24:15;7.57;;;4.57;;
64367;SDS011;50692;53.314;-6.300;2023-07-24T02:27:01;8.30;;;3.97;;
64367;SDS011;50692;53.314;-6.300;2023-07-24T02:29:51;8.80;;;4.07;;
64367;SDS011;50692;53.314;-6.300;2023-07-24T02:32:37;6.57;;;3.92;;
64367;SDS011;50692;53.314;-6.300;2023-07-24T02:35:24;8.23;;;3.70;;
64367;SDS011;50692;53.314;-6.300;2023-07-24T02:38:17;7.72;;;4.10;;
64367;SDS011;50692;53.314;-6.300;2023-07-24T02:41:03;7.65;;;3.60;;
64367;SDS011;50692;53.314;-6.300;2023-07-24T02:43:51;10.02;;;3.50;;
64367;SDS011;50692;53.314;-6.300;2023-07-24T02:46:36;6.97;;;3.90;;
64367;SDS011;50692;53.314;-6.300;2023-07-24T02:49:22;11.73;;;4.32;;
64367;SDS011;50692;53.314;-6.300;2023-07-24T02:52:16;5.82;;;3.95;;
64367;SDS011;50692;53.314;-6.300;2023-07-24T02:55:08;8.50;;;3.58;;
64367;SDS011;50692;53.314;-6.300;2023-07-24T02:57:58;4.97;;;3.60;;
64367;SDS011;50692;53.314;-6.300;2023-07-24T03:00:45;8.50;;;3.72;;
64367;SDS011;50692;53.314;-6.300;2023-07-24T03:03:35;8.27;;;3.95;;
64367;SDS011;50692;53.314;-6.300;2023-07-24T03:06:22;6.38;;;3.70;;
64367;SDS011;50692;53.314;-6.300;2023-07-24T03:09:08;6.47;;;3.60;;
64367;SDS011;50692;53.314;-6.300;2023-07-24T03:11:54;9.02;;;4.15;;
64367;SDS011;50692;53.314;-6.300;2023-07-24T03:14:41;5.78;;;3.60;;
64367;SDS011;50692;53.314;-6.300;2023-07-24T03:17:27;7.05;;;3.95;;
64367;SDS011;50692;53.314;-6.300;2023-07-24T03:20:15;5.55;;;3.55;;
64367;SDS011;50692;53.314;-6.300;2023-07-24T03:23:02;7.75;;;4.40;;
64367;SDS011;50692;53.314;-6.300;2023-07-24T03:25:48;8.30;;;3.85;;
64367;SDS011;50692;53.314;-6.300;2023-07-24T03:28:35;8.45;;;3.85;;
64367;SDS011;50692;53.314;-6.300;2023-07-24T03:31:21;6.35;;;3.65;;
64367;SDS011;50692;53.314;-6.300;2023-07-24T03:34:07;7.78;;;3.95;;
64367;SDS011;50692;53.314;-6.300;2023-07-24T03:36:53;9.13;;;3.65;;
64367;SDS011;50692;53.314;-6.300;2023-07-24T03:39:40;6.72;;;3.88;;
64367;SDS011;50692;53.314;-6.300;2023-07-24T03:42:26;5.45;;;3.75;;
64367;SDS011;50692;53.314;-6.300;2023-07-24T03:45:16;7.07;;;3.80;;
64367;SDS011;50692;53.314;-6.300;2023-07-24T03:48:02;6.68;;;3.83;;
64367;SDS011;50692;53.314;-6.300;2023-07-24T03:50:49;7.45;;;3.70;;
64367;SDS011;50692;53.314;-6.300;2023-07-24T03:53:43;6.93;;;3.90;;
64367;SDS011;50692;53.314;-6.300;2023-07-24T03:56:30;5.30;;;3.72;;
64367;SDS011;50692;53.314;-6.300;2023-07-24T03:59:17;8.80;;;3.88;;
64367;SDS011;50692;53.314;-6.300;2023-07-24T04:02:03;6.38;;;4.00;;
64367;SDS011;50692;53.314;-6.300;2023-07-24T04:04:49;8.35;;;4.30;;
64367;SDS011;50692;53.314;-6.300;2023-07-24T04:07:36;8.10;;;3.75;;
64367;SDS011;50692;53.314;-6.300;2023-07-24T04:10:22;5.32;;;3.75;;
64367;SDS011;50692;53.314;-6.300;2023-07-24T04:13:09;6.35;;;3.63;;
64367;SDS011;50692;53.314;-6.300;2023-07-24T04:15:55;7.03;;;4.20;;
64367;SDS011;50692;53.314;-6.300;2023-07-24T04:18:44;7.50;;;4.10;;
64367;SDS011;50692;53.314;-6.300;2023-07-24T04:21:32;6.25;;;3.80;;
64367;SDS011;50692;53.314;-6.300;2023-07-24T04:24:17;6.88;;;4.00;;
64367;SDS011;50692;53.314;-6.300;2023-07-24T04:27:09;6.45;;;3.65;;
64367;SDS011;50692;53.314;-6.300;2023-07-24T04:29:56;6.18;;;4.20;;
64367;SDS011;50692;53.314;-6.300;2023-07-24T04:32:43;6.97;;;3.78;;
64367;SDS011;50692;53.314;-6.300;2023-07-24T04:35:37;9.90;;;4.03;;
64367;SDS011;50692;53.314;-6.300;2023-07-24T04:38:23;7.63;;;4.60;;
64367;SDS011;50692;53.314;-6.300;2023-07-24T04:41:08;10.77;;;4.60;;
64367;SDS011;50692;53.314;-6.300;2023-07-24T04:43:56;6.50;;;4.30;;
64367;SDS011;50692;53.314;-6.300;2023-07-24T04:46:42;5.50;;;3.95;;
64367;SDS011;50692;53.314;-6.300;2023-07-24T04:49:31;9.00;;;4.20;;
64367;SDS011;50692;53.314;-6.300;2023-07-24T04:52:18;6.85;;;3.97;;
64367;SDS011;50692;53.314;-6.300;2023-07-24T04:55:05;6.30;;;3.92;;
64367;SDS011;50692;53.314;-6.300;2023-07-24T04:57:51;7.32;;;4.05;;
64367;SDS011;50692;53.314;-6.300;2023-07-24T05:00:38;5.60;;;3.70;;
64367;SDS011;50692;53.314;-6.300;2023-07-24T05:03:24;8.23;;;4.10;;
64367;SDS011;50692;53.314;-6.300;2023-07-24T05:06:10;7.45;;;4.30;;
64367;SDS011;50692;53.314;-6.300;2023-07-24T05:09:03;9.50;;;5.03;;
64367;SDS011;50692;53.314;-6.300;2023-07-24T05:11:52;7.80;;;4.90;;
64367;SDS011;50692;53.314;-6.300;2023-07-24T05:14:39;7.32;;;4.55;;
64367;SDS011;50692;53.314;-6.300;2023-07-24T05:17:27;8.15;;;4.70;;
64367;SDS011;50692;53.314;-6.300;2023-07-24T05:20:12;10.27;;;4.72;;
64367;SDS011;50692;53.314;-6.300;2023-07-24T05:22:58;6.68;;;4.13;;
64367;SDS011;50692;53.314;-6.300;2023-07-24T05:25:45;7.63;;;5.07;;
64367;SDS011;50692;53.314;-6.300;2023-07-24T05:28:38;9.88;;;5.50;;
64367;SDS011;50692;53.314;-6.300;2023-07-24T05:31:24;10.23;;;6.40;;
64367;SDS011;50692;53.314;-6.300;2023-07-24T05:34:10;9.48;;;4.40;;
64367;SDS011;50692;53.314;-6.300;2023-07-24T05:36:55;9.38;;;4.57;;
64367;SDS011;50692;53.314;-6.300;2023-07-24T05:39:41;6.85;;;4.60;;
64367;SDS011;50692;53.314;-6.300;2023-07-24T05:42:27;7.40;;;4.25;;
64367;SDS011;50692;53.314;-6.300;2023-07-24T05:45:24;9.23;;;4.70;;
64367;SDS011;50692;53.314;-6.300;2023-07-24T05:48:09;7.57;;;4.22;;
64367;SDS011;50692;53.314;-6.300;2023-07-24T05:50:55;6.63;;;4.43;;
64367;SDS011;50692;53.314;-6.300;2023-07-24T05:53:41;8.02;;;5.35;;
64367;SDS011;50692;53.314;-6.300;2023-07-24T05:56:28;9.20;;;4.47;;
64367;SDS011;50692;53.314;-6.300;2023-07-24T05:59:14;7.60;;;4.65;;
64367;SDS011;50692;53.314;-6.300;2023-07-24T06:02:00;8.32;;;4.60;;
64367;SDS011;50692;53.314;-6.300;2023-07-24T06:04:51;10.38;;;4.50;;
64367;SDS011;50692;53.314;-6.300;2023-07-24T06:07:38;8.57;;;4.70;;
64367;SDS011;50692;53.314;-6.300;2023-07-24T06:10:24;8.98;;;4.57;;
64367;SDS011;50692;53.314;-6.300;2023-07-24T06:13:10;8.82;;;4.57;;
64367;SDS011;50692;53.314;-6.300;2023-07-24T06:15:56;8.15;;;4.43;;
64367;SDS011;50692;53.314;-6.300;2023-07-24T06:18:43;6.22;;;4.00;;
64367;SDS011;50692;53.314;-6.300;2023-07-24T06:21:32;9.18;;;5.07;;
64367;SDS011;50692;53.314;-6.300;2023-07-24T06:24:17;7.50;;;4.80;;
64367;SDS011;50692;53.314;-6.300;2023-07-24T06:27:04;6.45;;;4.13;;
64367;SDS011;50692;53.314;-6.300;2023-07-24T06:29:55;7.90;;;4.28;;
64367;SDS011;50692;53.314;-6.300;2023-07-24T06:32:42;6.63;;;4.20;;
64367;SDS011;50692;53.314;-6.300;2023-07-24T06:35:30;7.70;;;4.55;;
64367;SDS011;50692;53.314;-6.300;2023-07-24T06:38:16;6.32;;;4.40;;
64367;SDS011;50692;53.314;-6.300;2023-07-24T06:41:04;6.35;;;4.45;;
64367;SDS011;50692;53.314;-6.300;2023-07-24T06:43:51;6.97;;;4.75;;
64367;SDS011;50692;53.314;-6.300;2023-07-24T06:46:45;6.68;;;3.95;;
64367;SDS011;50692;53.314;-6.300;2023-07-24T06:49:32;7.97;;;4.70;;
64367;SDS011;50692;53.314;-6.300;2023-07-24T06:52:18;8.43;;;3.80;;
64367;SDS011;50692;53.314;-6.300;2023-07-24T06:55:04;8.02;;;4.50;;
64367;SDS011;50692;53.314;-6.300;2023-07-24T06:57:51;9.85;;;4.00;;
64367;SDS011;50692;53.314;-6.300;2023-07-24T07:00:38;6.25;;;4.38;;
64367;SDS011;50692;53.314;-6.300;2023-07-24T07:03:24;5.88;;;3.65;;
64367;SDS011;50692;53.314;-6.300;2023-07-24T07:06:12;7.45;;;4.05;;
64367;SDS011;50692;53.314;-6.300;2023-07-24T07:08:57;5.13;;;3.45;;
64367;SDS011;50692;53.314;-6.300;2023-07-24T07:11:44;7.18;;;3.67;;
64367;SDS011;50692;53.314;-6.300;2023-07-24T07:14:33;7.60;;;4.13;;
64367;SDS011;50692;53.314;-6.300;2023-07-24T07:17:24;7.50;;;4.10;;
64367;SDS011;50692;53.314;-6.300;2023-07-24T07:20:29;6.45;;;3.85;;
64367;SDS011;50692;53.314;-6.300;2023-07-24T07:23:19;6.65;;;3.28;;
64367;SDS011;50692;53.314;-6.300;2023-07-24T07:26:06;5.32;;;3.05;;
64367;SDS011;50692;53.314;-6.300;2023-07-24T07:28:53;4.57;;;3.08;;
64367;SDS011;50692;53.314;-6.300;2023-07-24T07:31:40;4.88;;;3.15;;
64367;SDS011;50692;53.314;-6.300;2023-07-24T07:34:26;4.18;;;3.10;;
64367;SDS011;50692;53.314;-6.300;2023-07-24T07:37:13;4.68;;;2.92;;
64367;SDS011;50692;53.314;-6.300;2023-07-24T07:39:58;3.97;;;2.70;;
64367;SDS011;50692;53.314;-6.300;2023-07-24T07:42:44;6.78;;;2.97;;
64367;SDS011;50692;53.314;-6.300;2023-07-24T07:45:30;4.07;;;2.50;;
64367;SDS011;50692;53.314;-6.300;2023-07-24T07:48:16;3.63;;;2.58;;
64367;SDS011;50692;53.314;-6.300;2023-07-24T07:51:03;5.43;;;2.25;;
64367;SDS011;50692;53.314;-6.300;2023-07-24T07:53:49;5.13;;;2.55;;
64367;SDS011;50692;53.314;-6.300;2023-07-24T07:56:35;5.57;;;2.72;;
64367;SDS011;50692;53.314;-6.300;2023-07-24T07:59:20;6.28;;;2.47;;
64367;SDS011;50692;53.314;-6.300;2023-07-24T08:02:07;4.00;;;1.92;;
64367;SDS011;50692;53.314;-6.300;2023-07-24T08:04:53;3.20;;;1.83;;
64367;SDS011;50692;53.314;-6.300;2023-07-24T08:07:39;3.83;;;1.83;;
64367;SDS011;50692;53.314;-6.300;2023-07-24T08:10:24;4.68;;;2.05;;
64367;SDS011;50692;53.314;-6.300;2023-07-24T08:13:10;2.28;;;1.70;;
64367;SDS011;50692;53.314;-6.300;2023-07-24T08:15:56;3.03;;;1.88;;
64367;SDS011;50692;53.314;-6.300;2023-07-24T08:18:42;3.75;;;1.80;;
64367;SDS011;50692;53.314;-6.300;2023-07-24T08:21:28;2.10;;;1.60;;
64367;SDS011;50692;53.314;-6.300;2023-07-24T08:24:14;2.30;;;1.92;;
64367;SDS011;50692;53.314;-6.300;2023-07-24T08:26:59;2.60;;;1.58;;
64367;SDS011;50692;53.314;-6.300;2023-07-24T08:29:45;2.13;;;1.67;;
64367;SDS011;50692;53.314;-6.300;2023-07-24T08:32:31;2.83;;;1.50;;
64367;SDS011;50692;53.314;-6.300;2023-07-24T08:35:17;2.10;;;1.52;;
64367;SDS011;50692;53.314;-6.300;2023-07-24T08:38:02;2.95;;;1.90;;
64367;SDS011;50692;53.314;-6.300;2023-07-24T08:40:48;2.85;;;1.48;;
64367;SDS011;50692;53.314;-6.300;2023-07-24T08:43:34;3.08;;;1.67;;
64367;SDS011;50692;53.314;-6.300;2023-07-24T08:46:21;2.25;;;1.60;;
64367;SDS011;50692;53.314;-6.300;2023-07-24T08:49:14;1.77;;;1.30;;
64367;SDS011;50692;53.314;-6.300;2023-07-24T08:52:00;2.22;;;1.38;;
64367;SDS011;50692;53.314;-6.300;2023-07-24T08:54:46;4.63;;;2.10;;
64367;SDS011;50692;53.314;-6.300;2023-07-24T08:57:34;3.15;;;1.52;;
64367;SDS011;50692;53.314;-6.300;2023-07-24T09:00:20;2.05;;;1.27;;
64367;SDS011;50692;53.314;-6.300;2023-07-24T09:03:06;3.20;;;1.33;;
64367;SDS011;50692;53.314;-6.300;2023-07-24T09:05:53;2.53;;;1.10;;
64367;SDS011;50692;53.314;-6.300;2023-07-24T09:08:40;2.90;;;1.02;;
64367;SDS011;50692;53.314;-6.300;2023-07-24T09:11:26;1.58;;;1.10;;
64367;SDS011;50692;53.314;-6.300;2023-07-24T09:14:19;2.10;;;1.27;;
64367;SDS011;50692;53.314;-6.300;2023-07-24T09:17:09;3.78;;;1.42;;
64367;SDS011;50692;53.314;-6.300;2023-07-24T09:19:56;1.80;;;1.20;;
64367;SDS011;50692;53.314;-6.300;2023-07-24T09:22:50;2.05;;;1.20;;
64367;SDS011;50692;53.314;-6.300;2023-07-24T09:25:40;1.85;;;1.30;;
64367;SDS011;50692;53.314;-6.300;2023-07-24T09:31:13;2.13;;;1.30;;
64367;SDS011;50692;53.314;-6.300;2023-07-24T09:33:59;2.17;;;1.35;;
64367;SDS011;50692;53.314;-6.300;2023-07-24T09:36:45;1.83;;;1.20;;
64367;SDS011;50692;53.314;-6.300;2023-07-24T09:39:30;1.67;;;1.00;;
64367;SDS011;50692;53.314;-6.300;2023-07-24T09:42:16;3.15;;;1.23;;
64367;SDS011;50692;53.314;-6.300;2023-07-24T09:45:02;1.40;;;1.25;;
64367;SDS011;50692;53.314;-6.300;2023-07-24T09:47:55;2.60;;;1.20;;
64367;SDS011;50692;53.314;-6.300;2023-07-24T09:50:46;3.50;;;1.23;;
64367;SDS011;50692;53.314;-6.300;2023-07-24T09:56:46;2.03;;;1.30;;
64367;SDS011;50692;53.314;-6.300;2023-07-24T09:59:34;3.38;;;1.35;;
64367;SDS011;50692;53.314;-6.300;2023-07-24T10:02:22;2.17;;;1.30;;
64367;SDS011;50692;53.314;-6.300;2023-07-24T10:05:09;2.33;;;1.40;;
64367;SDS011;50692;53.314;-6.300;2023-07-24T10:07:57;2.50;;;1.17;;
64367;SDS011;50692;53.314;-6.300;2023-07-24T10:10:44;3.85;;;1.70;;
64367;SDS011;50692;53.314;-6.300;2023-07-24T10:13:30;2.35;;;1.38;;
64367;SDS011;50692;53.314;-6.300;2023-07-24T10:16:17;2.35;;;1.30;;
64367;SDS011;50692;53.314;-6.300;2023-07-24T10:19:12;3.25;;;1.50;;
64367;SDS011;50692;53.314;-6.300;2023-07-24T10:21:59;4.03;;;1.70;;
64367;SDS011;50692;53.314;-6.300;2023-07-24T10:24:45;1.83;;;1.30;;
64367;SDS011;50692;53.314;-6.300;2023-07-24T10:27:31;3.72;;;1.77;;
64367;SDS011;50692;53.314;-6.300;2023-07-24T10:30:27;3.47;;;1.30;;
64367;SDS011;50692;53.314;-6.300;2023-07-24T10:33:18;1.90;;;1.15;;
64367;SDS011;50692;53.314;-6.300;2023-07-24T10:36:06;1.60;;;1.13;;
64367;SDS011;50692;53.314;-6.300;2023-07-24T10:38:59;2.95;;;1.20;;
64367;SDS011;50692;53.314;-6.300;2023-07-24T10:41:47;1.63;;;1.20;;
64367;SDS011;50692;53.314;-6.300;2023-07-24T10:44:33;2.67;;;1.58;;
64367;SDS011;50692;53.314;-6.300;2023-07-24T10:47:19;2.80;;;1.50;;
64367;SDS011;50692;53.314;-6.300;2023-07-24T10:50:06;2.03;;;1.13;;
64367;SDS011;50692;53.314;-6.300;2023-07-24T10:52:52;3.45;;;1.30;;
64367;SDS011;50692;53.314;-6.300;2023-07-24T10:55:40;2.78;;;1.30;;
64367;SDS011;50692;53.314;-6.300;2023-07-24T10:58:26;1.90;;;1.35;;
64367;SDS011;50692;53.314;-6.300;2023-07-24T11:01:12;1.60;;;1.10;;
64367;SDS011;50692;53.314;-6.300;2023-07-24T11:03:59;3.28;;;1.20;;
64367;SDS011;50692;53.314;-6.300;2023-07-24T11:06:51;1.33;;;0.95;;
64367;SDS011;50692;53.314;-6.300;2023-07-24T11:09:38;2.47;;;1.38;;
64367;SDS011;50692;53.314;-6.300;2023-07-24T11:12:25;1.48;;;1.10;;
64367;SDS011;50692;53.314;-6.300;2023-07-24T11:15:16;1.98;;;1.10;;
64367;SDS011;50692;53.314;-6.300;2023-07-24T11:18:02;2.72;;;1.08;;
64367;SDS011;50692;53.314;-6.300;2023-07-24T11:20:50;1.98;;;1.25;;
64367;SDS011;50692;53.314;-6.300;2023-07-24T11:23:37;4.60;;;1.10;;
64367;SDS011;50692;53.314;-6.300;2023-07-24T11:26:24;2.78;;;1.10;;
64367;SDS011;50692;53.314;-6.300;2023-07-24T11:29:11;1.47;;;1.10;;
64367;SDS011;50692;53.314;-6.300;2023-07-24T11:31:58;2.28;;;1.00;;
64367;SDS011;50692;53.314;-6.300;2023-07-24T11:34:44;3.70;;;1.30;;
64367;SDS011;50692;53.314;-6.300;2023-07-24T11:37:30;3.00;;;1.20;;
64367;SDS011;50692;53.314;-6.300;2023-07-24T11:40:17;2.28;;;1.42;;
64367;SDS011;50692;53.314;-6.300;2023-07-24T11:43:16;2.15;;;1.02;;
64367;SDS011;50692;53.314;-6.300;2023-07-24T11:46:03;1.40;;;0.93;;
64367;SDS011;50692;53.314;-6.300;2023-07-24T11:48:49;1.38;;;1.05;;
64367;SDS011;50692;53.314;-6.300;2023-07-24T11:51:38;3.55;;;1.35;;
64367;SDS011;50692;53.314;-6.300;2023-07-24T11:54:24;2.13;;;1.20;;
64367;SDS011;50692;53.314;-6.300;2023-07-24T11:57:16;1.30;;;1.10;;
64367;SDS011;50692;53.314;-6.300;2023-07-24T12:00:02;2.28;;;1.05;;
64367;SDS011;50692;53.314;-6.300;2023-07-24T12:02:51;1.90;;;1.20;;
64367;SDS011;50692;53.314;-6.300;2023-07-24T12:05:38;1.30;;;1.20;;
64367;SDS011;50692;53.314;-6.300;2023-07-24T12:08:32;1.52;;;1.08;;
64367;SDS011;50692;53.314;-6.300;2023-07-24T12:11:20;1.77;;;1.20;;
64367;SDS011;50692;53.314;-6.300;2023-07-24T12:14:05;3.20;;;1.40;;
64367;SDS011;50692;53.314;-6.300;2023-07-24T12:17:03;3.65;;;1.25;;
64367;SDS011;50692;53.314;-6.300;2023-07-24T12:19:55;1.48;;;1.00;;
64367;SDS011;50692;53.314;-6.300;2023-07-24T12:22:40;1.98;;;1.20;;
64367;SDS011;50692;53.314;-6.300;2023-07-24T12:25:26;1.88;;;1.27;;
64367;SDS011;50692;53.314;-6.300;2023-07-24T12:28:12;1.52;;;1.25;;
64367;SDS011;50692;53.314;-6.300;2023-07-24T12:30:58;1.92;;;1.10;;
64367;SDS011;50692;53.314;-6.300;2023-07-24T12:33:44;2.28;;;1.40;;
64367;SDS011;50692;53.314;-6.300;2023-07-24T12:36:29;2.92;;;1.30;;
64367;SDS011;50692;53.314;-6.300;2023-07-24T12:39:16;2.95;;;1.20;;
64367;SDS011;50692;53.314;-6.300;2023-07-24T12:42:02;2.13;;;1.30;;
64367;SDS011;50692;53.314;-6.300;2023-07-24T12:44:48;1.65;;;1.25;;
64367;SDS011;50692;53.314;-6.300;2023-07-24T12:47:33;2.70;;;1.50;;
64367;SDS011;50692;53.314;-6.300;2023-07-24T12:50:19;2.17;;;1.20;;
64367;SDS011;50692;53.314;-6.300;2023-07-24T12:53:05;2.08;;;1.40;;
64367;SDS011;50692;53.314;-6.300;2023-07-24T12:55:51;2.03;;;1.27;;
64367;SDS011;50692;53.314;-6.300;2023-07-24T12:58:37;1.77;;;1.27;;
64367;SDS011;50692;53.314;-6.300;2023-07-24T13:01:23;2.63;;;1.20;;
64367;SDS011;50692;53.314;-6.300;2023-07-24T13:04:09;5.25;;;2.00;;
64367;SDS011;50692;53.314;-6.300;2023-07-24T13:06:55;5.82;;;2.05;;
64367;SDS011;50692;53.314;-6.300;2023-07-24T13:09:44;2.50;;;1.63;;
64367;SDS011;50692;53.314;-6.300;2023-07-24T13:12:30;2.63;;;1.80;;
64367;SDS011;50692;53.314;-6.300;2023-07-24T13:15:15;3.17;;;1.50;;
64367;SDS011;50692;53.314;-6.300;2023-07-24T13:18:01;2.53;;;1.92;;
64367;SDS011;50692;53.314;-6.300;2023-07-24T13:20:47;2.50;;;1.40;;
64367;SDS011;50692;53.314;-6.300;2023-07-24T13:23:33;1.65;;;1.35;;
64367;SDS011;50692;53.314;-6.300;2023-07-24T13:26:19;3.33;;;1.58;;
64367;SDS011;50692;53.314;-6.300;2023-07-24T13:29:05;2.55;;;1.48;;
64367;SDS011;50692;53.314;-6.300;2023-07-24T13:31:50;3.38;;;1.52;;
64367;SDS011;50692;53.314;-6.300;2023-07-24T13:34:39;3.13;;;1.40;;
64367;SDS011;50692;53.314;-6.300;2023-07-24T13:37:25;3.40;;;1.63;;
64367;SDS011;50692;53.314;-6.300;2023-07-24T13:40:11;1.92;;;1.40;;
64367;SDS011;50692;53.314;-6.300;2023-07-24T13:42:57;3.97;;;1.67;;
64367;SDS011;50692;53.314;-6.300;2023-07-24T13:45:43;2.42;;;1.50;;
64367;SDS011;50692;53.314;-6.300;2023-07-24T13:48:29;4.13;;;1.67;;
64367;SDS011;50692;53.314;-6.300;2023-07-24T13:51:15;1.73;;;1.50;;
64367;SDS011;50692;53.314;-6.300;2023-07-24T13:54:01;3.80;;;2.08;;
64367;SDS011;50692;53.314;-6.300;2023-07-24T13:56:47;3.45;;;1.80;;
64367;SDS011;50692;53.314;-6.300;2023-07-24T13:59:33;4.03;;;1.60;;
64367;SDS011;50692;53.314;-6.300;2023-07-24T14:02:20;3.92;;;1.83;;
64367;SDS011;50692;53.314;-6.300;2023-07-24T14:05:07;3.08;;;1.58;;
64367;SDS011;50692;53.314;-6.300;2023-07-24T14:07:53;3.28;;;1.45;;
64367;SDS011;50692;53.314;-6.300;2023-07-24T14:10:39;2.63;;;1.38;;
64367;SDS011;50692;53.314;-6.300;2023-07-24T14:13:25;2.53;;;1.60;;
64367;SDS011;50692;53.314;-6.300;2023-07-24T14:16:11;2.70;;;1.60;;
64367;SDS011;50692;53.314;-6.300;2023-07-24T14:18:56;2.67;;;1.60;;
64367;SDS011;50692;53.314;-6.300;2023-07-24T14:21:42;2.78;;;1.40;;
64367;SDS011;50692;53.314;-6.300;2023-07-24T14:24:29;4.38;;;1.50;;
64367;SDS011;50692;53.314;-6.300;2023-07-24T14:27:15;3.53;;;1.40;;
64367;SDS011;50692;53.314;-6.300;2023-07-24T14:30:00;2.25;;;1.48;;
64367;SDS011;50692;53.314;-6.300;2023-07-24T14:32:47;3.50;;;1.38;;
64367;SDS011;50692;53.314;-6.300;2023-07-24T14:35:34;1.48;;;1.25;;
64367;SDS011;50692;53.314;-6.300;2023-07-24T14:38:20;3.03;;;1.70;;
64367;SDS011;50692;53.314;-6.300;2023-07-24T14:41:06;3.60;;;1.30;;
64367;SDS011;50692;53.314;-6.300;2023-07-24T14:43:52;2.85;;;1.67;;
64367;SDS011;50692;53.314;-6.300;2023-07-24T14:46:38;1.98;;;1.25;;
64367;SDS011;50692;53.314;-6.300;2023-07-24T14:49:23;2.78;;;1.40;;
64367;SDS011;50692;53.314;-6.300;2023-07-24T14:52:09;3.10;;;1.30;;
64367;SDS011;50692;53.314;-6.300;2023-07-24T14:54:55;3.90;;;1.70;;
64367;SDS011;50692;53.314;-6.300;2023-07-24T14:57:41;2.95;;;1.60;;
64367;SDS011;50692;53.314;-6.300;2023-07-24T15:00:26;2.47;;;1.40;;
64367;SDS011;50692;53.314;-6.300;2023-07-24T15:03:13;1.95;;;1.40;;
64367;SDS011;50692;53.314;-6.300;2023-07-24T15:05:59;2.80;;;1.25;;
64367;SDS011;50692;53.314;-6.300;2023-07-24T15:08:49;4.03;;;1.70;;
64367;SDS011;50692;53.314;-6.300;2023-07-24T15:11:38;4.03;;;1.40;;
64367;SDS011;50692;53.314;-6.300;2023-07-24T15:14:24;3.00;;;1.20;;
64367;SDS011;50692;53.314;-6.300;2023-07-24T15:17:13;2.50;;;1.40;;
64367;SDS011;50692;53.314;-6.300;2023-07-24T15:20:00;3.03;;;1.25;;
64367;SDS011;50692;53.314;-6.300;2023-07-24T15:22:45;2.22;;;1.42;;
64367;SDS011;50692;53.314;-6.300;2023-07-24T15:25:31;4.43;;;1.98;;
64367;SDS011;50692;53.314;-6.300;2023-07-24T15:28:18;1.98;;;1.55;;
64367;SDS011;50692;53.314;-6.300;2023-07-24T15:31:04;2.47;;;1.60;;
64367;SDS011;50692;53.314;-6.300;2023-07-24T15:33:51;3.08;;;1.67;;
64367;SDS011;50692;53.314;-6.300;2023-07-24T15:36:36;3.13;;;1.52;;
64367;SDS011;50692;53.314;-6.300;2023-07-24T15:39:22;2.63;;;1.65;;
64367;SDS011;50692;53.314;-6.300;2023-07-24T15:42:08;3.13;;;1.67;;
64367;SDS011;50692;53.314;-6.300;2023-07-24T15:44:54;2.58;;;1.80;;
64367;SDS011;50692;53.314;-6.300;2023-07-24T15:47:40;2.63;;;1.90;;
64367;SDS011;50692;53.314;-6.300;2023-07-24T15:50:26;2.65;;;1.70;;
64367;SDS011;50692;53.314;-6.300;2023-07-24T15:53:13;3.17;;;2.10;;
64367;SDS011;50692;53.314;-6.300;2023-07-24T15:55:59;2.47;;;1.58;;
64367;SDS011;50692;53.314;-6.300;2023-07-24T15:58:46;3.55;;;1.58;;
64367;SDS011;50692;53.314;-6.300;2023-07-24T16:01:32;2.25;;;1.52;;
64367;SDS011;50692;53.314;-6.300;2023-07-24T16:04:18;3.13;;;1.70;;
64367;SDS011;50692;53.314;-6.300;2023-07-24T16:07:04;3.65;;;1.50;;
64367;SDS011;50692;53.314;-6.300;2023-07-24T16:09:50;4.15;;;1.67;;
64367;SDS011;50692;53.314;-6.300;2023-07-24T16:12:35;1.83;;;1.38;;
64367;SDS011;50692;53.314;-6.300;2023-07-24T16:15:21;2.45;;;1.35;;
64367;SDS011;50692;53.314;-6.300;2023-07-24T16:18:07;3.63;;;1.80;;
64367;SDS011;50692;53.314;-6.300;2023-07-24T16:20:53;3.90;;;1.60;;
64367;SDS011;50692;53.314;-6.300;2023-07-24T16:23:39;3.13;;;1.40;;
64367;SDS011;50692;53.314;-6.300;2023-07-24T16:26:24;2.22;;;1.60;;
64367;SDS011;50692;53.314;-6.300;2023-07-24T16:29:10;4.35;;;2.03;;
64367;SDS011;50692;53.314;-6.300;2023-07-24T16:31:56;2.55;;;1.50;;
64367;SDS011;50692;53.314;-6.300;2023-07-24T16:34:42;2.75;;;1.70;;
64367;SDS011;50692;53.314;-6.300;2023-07-24T16:37:27;3.45;;;1.92;;
64367;SDS011;50692;53.314;-6.300;2023-07-24T16:40:15;5.75;;;1.80;;
64367;SDS011;50692;53.314;-6.300;2023-07-24T16:43:01;2.67;;;1.85;;